createdAt,value
2018-12-19T00:00:40.433Z,3.37
2018-12-19T00:03:22.408Z,3.87
2018-12-19T00:06:02.198Z,3.07
2018-12-19T00:08:39.098Z,3.90
2018-12-19T00:11:18.236Z,3.13
2018-12-19T00:13:55.887Z,3.70
2018-12-19T00:16:37.010Z,3.70
2018-12-19T00:19:14.337Z,2.87
2018-12-19T00:21:52.487Z,3.73
2018-12-19T00:24:31.775Z,3.90
2018-12-19T00:27:13.637Z,3.83
2018-12-19T00:29:50.187Z,3.20
2018-12-19T00:32:29.561Z,2.70
2018-12-19T00:35:05.304Z,3.13
2018-12-19T00:37:47.459Z,2.77
2018-12-19T00:40:26.845Z,3.33
2018-12-19T00:43:03.798Z,3.43
2018-12-19T00:45:41.415Z,3.43
2018-12-19T00:48:19.728Z,3.07
2018-12-19T00:50:59.070Z,3.40
2018-12-19T00:53:38.057Z,3.27
2018-12-19T00:56:19.219Z,2.73
2018-12-19T00:58:58.653Z,3.27
2018-12-19T01:01:38.461Z,3.03
2018-12-19T01:04:20.354Z,2.77
2018-12-19T01:06:59.901Z,2.87
2018-12-19T01:09:41.023Z,2.87
2018-12-19T01:12:18.114Z,2.90
2018-12-19T01:14:55.712Z,3.37
2018-12-19T01:17:34.909Z,3.20
2018-12-19T01:20:15.201Z,2.73
2018-12-19T01:22:52.403Z,2.23
2018-12-19T01:25:29.865Z,2.27
2018-12-19T01:28:07.406Z,2.27
2018-12-19T01:30:45.198Z,2.93
2018-12-19T01:33:22.074Z,2.83
2018-12-19T01:35:59.474Z,3.07
2018-12-19T01:38:36.023Z,2.87
2018-12-19T01:41:13.930Z,2.70
2018-12-19T01:43:51.617Z,2.80
2018-12-19T01:46:33.701Z,2.90
2018-12-19T01:49:13.111Z,2.97
2018-12-19T01:51:50.811Z,2.90
2018-12-19T01:54:29.907Z,2.70
2018-12-19T01:57:06.880Z,2.63
2018-12-19T01:59:46.450Z,2.83
2018-12-19T02:02:29.078Z,2.57
2018-12-19T02:05:07.003Z,2.73
2018-12-19T02:07:46.183Z,2.93
2018-12-19T02:10:22.758Z,2.93
2018-12-19T02:13:04.470Z,3.30
2018-12-19T02:15:43.898Z,3.00
2018-12-19T02:18:21.069Z,2.77
2018-12-19T02:21:00.495Z,2.70
2018-12-19T02:23:39.542Z,2.57
2018-12-19T02:26:19.130Z,3.07
2018-12-19T02:28:56.575Z,2.17
2018-12-19T02:31:36.024Z,2.73
2018-12-19T02:34:12.607Z,3.00
2018-12-19T02:36:52.889Z,2.90
2018-12-19T02:39:36.129Z,2.50
2018-12-19T02:42:09.966Z,2.77
2018-12-19T02:44:47.085Z,2.43
2018-12-19T02:47:24.111Z,2.73
2018-12-19T02:50:03.668Z,2.77
2018-12-19T02:52:44.741Z,2.73
2018-12-19T02:55:21.964Z,2.50
2018-12-19T02:57:59.661Z,2.63
2018-12-19T03:00:38.487Z,2.67
2018-12-19T03:03:17.802Z,2.57
2018-12-19T03:05:55.397Z,2.83
2018-12-19T03:08:37.748Z,2.97
2018-12-19T03:11:17.360Z,3.07
2018-12-19T03:13:55.906Z,3.03
2018-12-19T03:16:33.429Z,2.47
2018-12-19T03:19:10.875Z,3.27
2018-12-19T03:21:50.663Z,2.43
2018-12-19T03:24:31.672Z,2.33
2018-12-19T03:27:08.645Z,2.70
2018-12-19T03:29:47.388Z,2.50
2018-12-19T03:32:25.166Z,2.60
2018-12-19T03:35:04.199Z,2.27
2018-12-19T03:37:41.991Z,2.60
2018-12-19T03:40:23.942Z,2.30
2018-12-19T03:43:02.903Z,2.20
2018-12-19T03:45:40.434Z,2.67
2018-12-19T03:48:24.845Z,2.83
2018-12-19T03:51:01.404Z,2.53
2018-12-19T03:53:41.059Z,2.27
2018-12-19T03:56:18.306Z,2.43
2018-12-19T03:58:58.917Z,2.40
2018-12-19T04:01:38.155Z,3.13
2018-12-19T04:04:17.892Z,2.47
2018-12-19T04:06:54.511Z,2.37
2018-12-19T04:09:36.666Z,2.60
2018-12-19T04:12:15.358Z,2.60
2018-12-19T04:14:57.101Z,2.33
2018-12-19T04:17:36.662Z,2.23
2018-12-19T04:20:15.769Z,2.60
2018-12-19T04:22:53.068Z,2.37
2018-12-19T04:25:34.738Z,2.70
2018-12-19T04:28:14.709Z,3.20
2018-12-19T04:30:55.946Z,2.70
2018-12-19T04:33:33.287Z,2.63
2018-12-19T04:36:12.246Z,3.43
2018-12-19T04:38:49.430Z,2.97
2018-12-19T04:41:28.332Z,2.80
2018-12-19T04:44:05.417Z,2.40
2018-12-19T04:46:42.928Z,2.47
2018-12-19T04:49:19.402Z,2.73
2018-12-19T04:51:58.848Z,3.00
2018-12-19T04:54:36.374Z,2.87
2018-12-19T04:57:15.797Z,2.90
2018-12-19T04:59:52.749Z,2.20
2018-12-19T05:02:34.107Z,2.90
2018-12-19T05:05:13.240Z,2.93
2018-12-19T05:07:51.327Z,3.00
2018-12-19T05:10:30.694Z,2.93
2018-12-19T05:13:07.780Z,2.60
2018-12-19T05:15:47.220Z,2.63
2018-12-19T05:18:25.036Z,2.70
2018-12-19T05:21:07.123Z,2.60
2018-12-19T05:23:46.708Z,3.10
2018-12-19T05:26:24.076Z,3.53
2018-12-19T05:29:04.045Z,3.13
2018-12-19T05:31:43.385Z,3.00
2018-12-19T05:34:23.597Z,3.30
2018-12-19T05:37:03.026Z,3.63
2018-12-19T05:39:40.767Z,3.13
2018-12-19T05:42:17.720Z,3.20
2018-12-19T05:44:59.756Z,2.90
2018-12-19T05:47:41.372Z,3.00
2018-12-19T05:50:22.050Z,3.10
2018-12-19T05:53:04.627Z,3.00
2018-12-19T05:55:43.775Z,3.03
2018-12-19T05:58:22.935Z,3.00
2018-12-19T06:01:00.437Z,2.87
2018-12-19T06:03:32.524Z,3.10
2018-12-19T06:06:14.233Z,3.87
2018-12-19T06:08:54.447Z,3.20
2018-12-19T06:11:36.046Z,2.83
2018-12-19T06:14:08.464Z,3.27
2018-12-19T06:16:45.151Z,3.10
2018-12-19T06:19:24.199Z,3.37
2018-12-19T06:22:01.120Z,3.47
2018-12-19T06:24:40.300Z,3.13
2018-12-19T06:27:17.288Z,2.90
2018-12-19T06:29:56.320Z,3.37
2018-12-19T06:32:35.827Z,3.80
2018-12-19T06:35:13.007Z,3.17
2018-12-19T06:37:50.618Z,2.70
2018-12-19T06:40:32.734Z,3.30
2018-12-19T06:43:08.626Z,3.30
2018-12-19T06:45:48.638Z,3.07
2018-12-19T06:48:25.124Z,2.80
2018-12-19T06:51:01.526Z,3.10
2018-12-19T06:53:30.853Z,3.90
2018-12-19T06:56:10.412Z,3.73
2018-12-19T06:58:48.974Z,4.03
2018-12-19T07:01:30.547Z,3.10
2018-12-19T07:04:00.355Z,4.53
2018-12-19T07:06:39.947Z,5.70
2018-12-19T07:09:18.028Z,5.27
2018-12-19T07:11:48.449Z,12.67
2018-12-19T07:14:27.535Z,4.67
2018-12-19T07:17:04.730Z,4.63
2018-12-19T07:19:42.313Z,4.37
2018-12-19T07:22:21.446Z,4.67
2018-12-19T07:25:00.797Z,5.40
2018-12-19T07:27:38.019Z,4.80
2018-12-19T07:30:19.290Z,4.40
2018-12-19T07:32:49.848Z,5.30
2018-12-19T07:35:29.425Z,6.20
2018-12-19T07:38:07.069Z,4.90
2018-12-19T07:40:45.844Z,6.77
2018-12-19T07:43:22.468Z,4.70
2018-12-19T07:46:01.582Z,5.13
2018-12-19T07:48:38.755Z,5.03
2018-12-19T07:51:20.716Z,6.17
2018-12-19T07:54:01.864Z,5.67
2018-12-19T07:56:39.789Z,6.80
2018-12-19T07:59:19.088Z,5.40
2018-12-19T08:01:57.234Z,5.60
2018-12-19T08:04:38.809Z,5.93
2018-12-19T08:07:16.668Z,5.97
2018-12-19T08:09:53.658Z,5.57
2018-12-19T08:12:36.227Z,6.70
2018-12-19T08:15:16.435Z,6.40
2018-12-19T08:17:58.950Z,6.93
2018-12-19T08:20:39.540Z,7.03
2018-12-19T08:23:18.774Z,7.00
2018-12-19T08:25:56.273Z,7.00
2018-12-19T08:28:38.701Z,6.63
2018-12-19T08:31:16.291Z,5.57
2018-12-19T08:33:53.542Z,6.13
2018-12-19T08:36:33.079Z,5.53
2018-12-19T08:39:12.412Z,6.63
2018-12-19T08:41:50.069Z,5.67
2018-12-19T08:44:28.851Z,6.13
2018-12-19T08:47:08.095Z,6.63
2018-12-19T08:49:51.081Z,6.20
2018-12-19T08:52:27.736Z,6.43
2018-12-19T08:55:07.881Z,8.73
2018-12-19T08:57:49.626Z,6.07
2018-12-19T09:00:28.413Z,7.17
2018-12-19T09:03:08.062Z,7.40
2018-12-19T09:05:49.513Z,8.00
2018-12-19T09:08:25.921Z,7.40
2018-12-19T09:11:05.894Z,6.93
2018-12-19T09:13:50.110Z,7.80
2018-12-19T09:16:26.701Z,7.77
2018-12-19T09:19:05.884Z,8.33
2018-12-19T09:21:52.002Z,7.47
2018-12-19T09:24:31.314Z,6.90
2018-12-19T09:27:11.530Z,7.37
2018-12-19T09:29:49.498Z,7.23
2018-12-19T09:32:31.763Z,7.57
2018-12-19T09:35:09.725Z,7.47
2018-12-19T09:37:46.369Z,7.03
2018-12-19T09:40:25.775Z,8.50
2018-12-19T09:43:07.885Z,7.13
2018-12-19T09:45:44.672Z,7.73
2018-12-19T09:48:24.864Z,7.87
2018-12-19T09:51:01.946Z,8.27
2018-12-19T09:53:44.318Z,9.17
2018-12-19T09:56:21.624Z,8.93
2018-12-19T09:59:02.681Z,8.53
2018-12-19T10:01:38.890Z,8.97
2018-12-19T10:04:20.055Z,8.73
2018-12-19T10:07:01.921Z,9.00
2018-12-19T10:09:41.268Z,8.17
2018-12-19T10:12:23.206Z,7.47
2018-12-19T10:15:00.576Z,9.07
2018-12-19T10:17:41.116Z,6.40
2018-12-19T10:20:22.595Z,7.93
2018-12-19T10:23:00.130Z,7.93
2018-12-19T10:25:37.183Z,8.97
2018-12-19T10:28:20.187Z,9.53
2018-12-19T10:30:58.436Z,8.10
2018-12-19T10:33:37.062Z,9.17
2018-12-19T10:36:14.252Z,8.73
2018-12-19T10:38:53.595Z,9.93
2018-12-19T10:41:33.592Z,8.47
2018-12-19T10:44:11.323Z,10.80
2018-12-19T10:46:54.716Z,9.97
2018-12-19T10:49:33.903Z,11.00
2018-12-19T10:52:12.535Z,9.83
2018-12-19T10:54:50.750Z,9.97
2018-12-19T10:57:28.412Z,9.53
2018-12-19T11:00:17.965Z,9.17
2018-12-19T11:02:48.343Z,9.30
2018-12-19T11:05:25.723Z,10.07
2018-12-19T11:08:07.825Z,9.50
2018-12-19T11:10:46.862Z,11.13
2018-12-19T11:13:29.509Z,10.63
2018-12-19T11:16:06.447Z,10.10
2018-12-19T11:18:45.405Z,9.07
2018-12-19T11:21:25.519Z,9.87
2018-12-19T11:24:07.500Z,9.27
2018-12-19T11:30:07.534Z,8.43
2018-12-19T11:32:45.371Z,7.93
2018-12-19T11:35:24.559Z,8.27
2018-12-19T11:38:01.602Z,7.63
2018-12-19T11:40:40.686Z,8.10
2018-12-19T11:43:17.348Z,7.83
2018-12-19T11:45:59.389Z,7.47
2018-12-19T11:48:38.708Z,7.20
2018-12-19T11:51:14.471Z,7.23
2018-12-19T11:53:57.386Z,7.13
2018-12-19T11:56:36.329Z,6.43
2018-12-19T11:59:05.369Z,6.40
2018-12-19T12:01:42.380Z,7.80
2018-12-19T12:04:22.688Z,6.90
2018-12-19T12:06:59.567Z,6.87
2018-12-19T12:09:41.504Z,6.93
2018-12-19T12:12:18.877Z,7.33
2018-12-19T12:14:51.203Z,6.43
2018-12-19T12:17:27.968Z,7.10
2018-12-19T12:20:06.398Z,5.50
2018-12-19T12:22:38.581Z,6.47
2018-12-19T12:25:15.939Z,5.60
2018-12-19T12:27:53.235Z,5.83
2018-12-19T12:30:33.885Z,5.67
2018-12-19T12:33:12.780Z,5.83
2018-12-19T12:35:50.455Z,5.47
2018-12-19T12:38:34.194Z,4.83
2018-12-19T12:41:12.685Z,5.40
2018-12-19T12:43:52.224Z,5.30
2018-12-19T12:46:28.186Z,5.40
2018-12-19T12:49:14.131Z,6.30
2018-12-19T12:51:53.995Z,5.60
2018-12-19T12:54:34.244Z,4.73
2018-12-19T12:57:11.650Z,6.17
2018-12-19T12:59:49.795Z,6.20
2018-12-19T13:02:27.655Z,5.30
2018-12-19T13:05:04.292Z,6.00
2018-12-19T13:07:46.209Z,5.13
2018-12-19T13:10:28.595Z,5.10
2018-12-19T13:13:07.302Z,5.03
2018-12-19T13:15:48.957Z,4.83
2018-12-19T13:18:25.402Z,5.83
2018-12-19T13:21:02.699Z,6.20
2018-12-19T13:23:40.373Z,5.57
2018-12-19T13:26:22.365Z,4.70
2018-12-19T13:29:01.715Z,4.67
2018-12-19T13:31:43.688Z,4.83
2018-12-19T13:34:20.468Z,4.43
2018-12-19T13:36:59.050Z,4.43
2018-12-19T13:39:38.781Z,4.60
2018-12-19T13:42:16.208Z,4.17
2018-12-19T13:44:48.858Z,4.40
2018-12-19T13:47:25.806Z,3.80
2018-12-19T13:50:03.402Z,4.20
2018-12-19T13:52:40.335Z,4.30
2018-12-19T13:55:19.939Z,4.40
2018-12-19T13:57:57.305Z,5.10
2018-12-19T14:00:33.810Z,4.40
2018-12-19T14:03:13.588Z,3.90
2018-12-19T14:05:52.482Z,4.50
2018-12-19T14:08:34.195Z,4.20
2018-12-19T14:11:13.764Z,4.20
2018-12-19T14:13:52.055Z,4.20
2018-12-19T14:16:31.032Z,4.17
2018-12-19T14:19:12.483Z,3.87
2018-12-19T14:21:48.797Z,4.13
2018-12-19T14:24:28.226Z,4.10
2018-12-19T14:27:06.116Z,3.50
2018-12-19T14:29:44.264Z,3.63
2018-12-19T14:32:23.474Z,3.73
2018-12-19T14:35:00.791Z,3.60
2018-12-19T14:37:42.187Z,4.10
2018-12-19T14:40:19.869Z,3.83
2018-12-19T14:42:57.246Z,3.77
2018-12-19T14:45:34.502Z,3.80
2018-12-19T14:48:13.605Z,4.03
2018-12-19T14:50:50.856Z,6.27
2018-12-19T14:53:28.693Z,3.33
2018-12-19T14:56:05.440Z,3.70
2018-12-19T15:02:07.323Z,3.20
2018-12-19T15:04:39.388Z,3.47
2018-12-19T15:07:20.620Z,4.07
2018-12-19T15:09:53.762Z,5.57
2018-12-19T15:12:30.429Z,3.77
2018-12-19T15:15:07.613Z,4.20
2018-12-19T15:17:46.550Z,3.00
2018-12-19T15:20:23.532Z,3.87
2018-12-19T15:23:05.538Z,3.20
2018-12-19T15:25:43.453Z,3.30
2018-12-19T15:28:20.054Z,3.03
2018-12-19T15:30:57.768Z,3.17
2018-12-19T15:33:45.007Z,2.60
2018-12-19T15:36:24.379Z,2.37
2018-12-19T15:39:06.488Z,2.93
2018-12-19T15:41:58.276Z,2.80
2018-12-19T15:44:35.638Z,3.70
2018-12-19T15:47:15.137Z,2.80
2018-12-19T15:49:56.947Z,2.47
2018-12-19T15:52:29.134Z,2.30
2018-12-19T15:55:01.281Z,2.30
2018-12-19T15:57:38.130Z,3.17
2018-12-19T16:00:15.506Z,2.17
2018-12-19T16:02:54.017Z,2.23
2018-12-19T16:05:33.214Z,2.67
2018-12-19T16:08:10.356Z,2.77
2018-12-19T16:10:52.308Z,2.50
2018-12-19T16:13:34.073Z,2.17
2018-12-19T16:16:12.333Z,2.60
2018-12-19T16:18:48.613Z,2.37
2018-12-19T16:21:27.783Z,2.43
2018-12-19T16:24:05.849Z,2.13
2018-12-19T16:26:45.956Z,2.27
2018-12-19T16:29:25.119Z,2.23
2018-12-19T16:32:02.392Z,2.63
2018-12-19T16:34:43.941Z,2.60
2018-12-19T16:37:20.962Z,2.20
2018-12-19T16:39:58.591Z,3.00
2018-12-19T16:42:35.796Z,2.60
2018-12-19T16:45:12.573Z,2.53
2018-12-19T16:47:54.821Z,3.07
2018-12-19T16:50:36.545Z,2.47
2018-12-19T16:53:15.849Z,2.53
2018-12-19T16:55:48.356Z,2.43
2018-12-19T16:58:25.235Z,2.40
2018-12-19T17:01:05.022Z,2.97
2018-12-19T17:03:36.917Z,4.57
2018-12-19T17:06:18.845Z,2.80
2018-12-19T17:09:00.153Z,2.87
2018-12-19T17:11:38.943Z,2.90
2018-12-19T17:14:19.118Z,3.10
2018-12-19T17:16:55.619Z,2.63
2018-12-19T17:19:38.079Z,3.70
2018-12-19T17:22:16.960Z,2.70
2018-12-19T17:24:53.208Z,2.90
2018-12-19T17:27:34.221Z,2.90
2018-12-19T17:36:37.172Z,3.40
2018-12-19T17:39:09.462Z,3.43
2018-12-19T17:41:46.567Z,2.70
2018-12-19T17:44:25.961Z,3.93
2018-12-19T17:47:03.054Z,3.00
2018-12-19T17:49:42.730Z,3.63
2018-12-19T17:52:19.297Z,2.90
2018-12-19T17:54:55.629Z,3.57
2018-12-19T17:57:34.836Z,4.03
2018-12-19T18:00:13.991Z,2.90
2018-12-19T18:02:55.526Z,4.27
2018-12-19T18:05:32.215Z,2.83
2018-12-19T18:08:12.126Z,3.63
2018-12-19T18:10:55.638Z,3.13
2018-12-19T18:13:37.181Z,3.13
2018-12-19T18:16:10.407Z,3.50
2018-12-19T18:18:47.591Z,3.00
2018-12-19T18:21:24.715Z,3.73
2018-12-19T18:24:01.401Z,3.50
2018-12-19T18:26:37.549Z,3.80
2018-12-19T18:29:14.501Z,4.20
2018-12-19T18:31:50.488Z,3.73
2018-12-19T18:34:27.842Z,4.60
2018-12-19T18:37:04.083Z,3.50
2018-12-19T18:39:36.303Z,3.57
2018-12-19T18:42:15.454Z,2.80
2018-12-19T18:44:52.921Z,3.10
2018-12-19T18:47:31.951Z,3.47
2018-12-19T18:50:15.333Z,3.60
2018-12-19T18:52:52.520Z,3.57
2018-12-19T18:55:33.557Z,3.53
2018-12-19T18:58:06.238Z,4.23
2018-12-19T19:00:46.851Z,3.47
2018-12-19T19:03:25.938Z,3.30
2018-12-19T19:06:02.959Z,3.43
2018-12-19T19:08:34.973Z,3.03
2018-12-19T19:11:16.153Z,3.57
2018-12-19T19:13:52.728Z,3.13
2018-12-19T19:16:34.149Z,3.47
2018-12-19T19:19:15.295Z,3.97
2018-12-19T19:21:56.440Z,3.33
2018-12-19T19:24:38.259Z,2.93
2018-12-19T19:27:15.404Z,2.90
2018-12-19T19:29:47.940Z,3.60
2018-12-19T19:32:24.831Z,3.17
2018-12-19T19:35:02.010Z,3.60
2018-12-19T19:37:39.047Z,3.20
2018-12-19T19:40:19.227Z,2.77
2018-12-19T19:43:12.037Z,2.90
2018-12-19T19:45:48.095Z,2.90
2018-12-19T19:48:27.170Z,3.50
2018-12-19T19:51:08.977Z,3.20
2018-12-19T19:53:41.448Z,2.93
2018-12-19T19:56:24.858Z,3.00
2018-12-19T19:59:06.150Z,2.93
2018-12-19T20:01:43.166Z,2.70
2018-12-19T20:04:21.360Z,3.03
2018-12-19T20:07:00.909Z,2.80
2018-12-19T20:09:37.948Z,2.90
2018-12-19T20:12:15.150Z,3.10
2018-12-19T20:14:54.180Z,2.80
2018-12-19T20:17:33.732Z,2.47
2018-12-19T20:20:12.844Z,2.83
2018-12-19T20:22:49.504Z,3.10
2018-12-19T20:25:27.358Z,2.53
2018-12-19T20:28:03.695Z,2.27
2018-12-19T20:30:41.255Z,2.40
2018-12-19T20:33:23.068Z,2.43
2018-12-19T20:36:01.819Z,2.50
2018-12-19T20:38:39.140Z,2.37
2018-12-19T20:41:18.658Z,2.23
2018-12-19T20:43:55.785Z,3.20
2018-12-19T20:46:37.762Z,2.53
2018-12-19T20:49:20.071Z,2.33
2018-12-19T20:51:58.308Z,2.23
2018-12-19T20:54:37.141Z,2.57
2018-12-19T20:57:16.546Z,2.53
2018-12-19T21:00:00.107Z,2.57
2018-12-19T21:02:37.239Z,2.80
2018-12-19T21:05:16.157Z,2.50
2018-12-19T21:07:53.200Z,3.00
2018-12-19T21:10:35.336Z,2.17
2018-12-19T21:13:15.066Z,2.30
2018-12-19T21:16:01.949Z,2.30
2018-12-19T21:18:51.764Z,2.50
2018-12-19T21:21:27.533Z,1.97
2018-12-19T21:24:05.396Z,2.17
2018-12-19T21:26:42.482Z,2.37
2018-12-19T21:29:21.767Z,2.50
2018-12-19T21:32:04.405Z,2.63
2018-12-19T21:34:43.145Z,2.47
2018-12-19T21:37:29.186Z,2.30
2018-12-19T21:40:10.687Z,2.60
2018-12-19T21:42:48.232Z,2.20
2018-12-19T21:45:26.206Z,2.97
2018-12-19T21:48:03.834Z,2.30
2018-12-19T21:50:45.808Z,2.53
2018-12-19T21:53:25.233Z,2.40
2018-12-19T21:56:02.970Z,2.40
2018-12-19T21:58:43.520Z,3.03
2018-12-19T22:01:20.607Z,2.77
2018-12-19T22:04:00.644Z,2.47
2018-12-19T22:06:37.655Z,2.50
2018-12-19T22:09:15.845Z,2.47
2018-12-19T22:11:52.446Z,2.57
2018-12-19T22:14:35.041Z,2.00
2018-12-19T22:17:19.738Z,2.07
2018-12-19T22:19:56.435Z,2.70
2018-12-19T22:22:39.777Z,2.70
2018-12-19T22:25:22.760Z,2.40
2018-12-19T22:28:03.873Z,2.07
2018-12-19T22:30:46.419Z,2.07
2018-12-19T22:33:23.792Z,2.57
2018-12-19T22:36:06.326Z,2.50
2018-12-19T22:38:45.699Z,2.90
2018-12-19T22:41:24.237Z,2.70
2018-12-19T22:43:56.349Z,2.73
2018-12-19T22:46:35.749Z,2.17
2018-12-19T22:49:13.036Z,3.20
2018-12-19T22:51:50.015Z,2.63
2018-12-19T22:54:25.997Z,1.93
2018-12-19T22:56:58.546Z,2.60
2018-12-19T22:59:36.044Z,3.30
2018-12-19T23:02:17.652Z,2.60
2018-12-19T23:04:56.225Z,2.87
2018-12-19T23:07:38.332Z,3.00
2018-12-19T23:10:10.533Z,2.00
2018-12-19T23:12:42.437Z,3.63
2018-12-19T23:15:19.957Z,2.53
2018-12-19T23:17:53.522Z,2.97
2018-12-19T23:20:30.275Z,2.93
2018-12-19T23:23:07.349Z,2.10
2018-12-19T23:25:39.542Z,3.40
2018-12-19T23:28:15.633Z,3.40
2018-12-19T23:30:51.868Z,3.10
2018-12-19T23:33:28.161Z,2.70
2018-12-19T23:36:07.290Z,4.17
2018-12-19T23:38:43.634Z,2.27
2018-12-19T23:41:21.758Z,4.73
2018-12-19T23:43:59.128Z,2.73
2018-12-19T23:46:35.504Z,4.50
2018-12-19T23:49:12.278Z,3.33
2018-12-19T23:51:48.354Z,3.40
2018-12-19T23:54:28.976Z,3.77
2018-12-19T23:57:04.939Z,2.93
2018-12-19T23:59:42.043Z,4.40
